Excelsior, Minnesota
Current Conditions -  °F | °C
As of 1:53 PM on Monday 26 Jan 2015 (Local Time) from KFCM Reporting Station
Scattered Clouds Scattered Clouds  
Wind Chill: 39°   Ceiling: Unl
Heat Index: 44°   Visibility: 10mi
Dew Point: 32°   Wind: 10mph
Humidity: 63%   Direction: 300°WNW
Pressure: 29.73"   Gusts: NA
Location:  44.9°N, 93.57°W
Report Text: KFCM 261953Z 30009KT 10SM SCT025 07/00 A2973 RMK AO2 SLP075 T00670000
Loading
Personal Weather Stations






























Interactive Weather Map New forecast layout! Learn more

10-Day Weather Forecast

Advertisements
Track Severe Weather on mobile